createdAt,value
2023-07-14T00:02:42.927Z,26.17
2023-07-14T00:08:33.748Z,26.03
2023-07-14T00:20:03.187Z,25.91
2023-07-14T00:24:54.366Z,25.91
2023-07-14T00:30:51.051Z,25.86
2023-07-14T00:36:47.334Z,25.84
2023-07-14T00:42:43.474Z,25.85
2023-07-14T00:54:46.103Z,25.79
2023-07-14T01:01:31.436Z,25.79
2023-07-14T01:07:28.915Z,25.71
2023-07-14T01:12:48.400Z,25.72
2023-07-14T01:30:02.184Z,25.76
2023-07-14T01:36:15.457Z,25.75
2023-07-14T01:41:33.459Z,25.81
2023-07-14T01:48:03.519Z,25.76
2023-07-14T01:52:35.488Z,25.75
2023-07-14T02:09:16.515Z,25.66
2023-07-14T02:15:02.885Z,25.66
2023-07-14T02:21:09.684Z,25.72
2023-07-14T02:26:13.954Z,25.74
2023-07-14T02:31:25.511Z,25.78
2023-07-14T02:37:18.554Z,25.74
2023-07-14T02:43:07.248Z,25.80
2023-07-14T02:48:29.130Z,25.82
2023-07-14T02:54:23.239Z,25.80
2023-07-14T03:03:44.810Z,25.85
2023-07-14T03:05:16.551Z,25.81
2023-07-14T03:11:22.868Z,25.74
2023-07-14T03:16:41.060Z,25.74
2023-07-14T03:21:54.422Z,25.70
2023-07-14T03:27:49.297Z,25.63
2023-07-14T03:33:51.805Z,25.62
2023-07-14T03:38:24.745Z,25.55
2023-07-14T03:44:07.917Z,25.53
2023-07-14T03:49:37.800Z,25.48
2023-07-14T03:55:18.360Z,25.53
2023-07-14T04:00:32.274Z,25.59
2023-07-14T04:05:55.963Z,25.50
2023-07-14T04:11:38.409Z,25.45
2023-07-14T04:17:35.862Z,25.46
2023-07-14T04:23:23.181Z,25.38
2023-07-14T04:29:14.085Z,25.38
2023-07-14T04:35:13.761Z,25.40
2023-07-14T04:40:37.200Z,25.41
2023-07-14T04:46:21.631Z,25.39
2023-07-14T04:57:45.595Z,25.37
2023-07-14T05:03:14.377Z,25.39
2023-07-14T05:08:44.607Z,25.38
2023-07-14T05:14:48.577Z,25.35
2023-07-14T05:20:46.593Z,25.39
2023-07-14T05:26:32.290Z,25.44
2023-07-14T05:32:17.642Z,25.40
2023-07-14T05:37:44.861Z,25.46
2023-07-14T05:43:24.732Z,25.48
2023-07-14T05:49:07.154Z,25.46
2023-07-14T05:55:28.292Z,25.53
2023-07-14T06:00:17.124Z,25.64
2023-07-14T06:06:22.399Z,25.69
2023-07-14T06:11:33.287Z,25.76
2023-07-14T06:17:06.058Z,25.80
2023-07-14T06:22:53.809Z,25.80
2023-07-14T06:28:44.995Z,25.83
2023-07-14T06:36:30.456Z,25.87
2023-07-14T06:40:14.460Z,25.90
2023-07-14T06:45:01.429Z,25.93
2023-07-14T06:51:28.911Z,25.95
2023-07-14T06:56:18.828Z,26.01
2023-07-14T07:01:25.073Z,26.03
2023-07-14T07:06:54.083Z,26.06
2023-07-14T07:12:45.610Z,26.10
2023-07-14T07:18:45.551Z,26.14
2023-07-14T07:25:19.575Z,26.18
2023-07-14T07:28:43.755Z,26.20
2023-07-14T07:33:51.690Z,26.13
2023-07-14T07:39:03.585Z,26.09
2023-07-14T07:45:09.148Z,26.13
2023-07-14T07:50:16.330Z,26.13
2023-07-14T07:56:09.163Z,26.18
2023-07-14T08:02:03.861Z,26.19
2023-07-14T08:07:15.420Z,26.24
2023-07-14T08:12:27.681Z,26.28
2023-07-14T08:17:47.149Z,26.31
2023-07-14T08:24:04.939Z,26.31
2023-07-14T08:28:42.869Z,26.33
2023-07-14T08:39:07.483Z,26.37
2023-07-14T08:45:22.635Z,26.39
2023-07-14T08:49:57.232Z,26.46
2023-07-14T08:54:24.356Z,26.35
2023-07-14T08:54:49.585Z,26.49
2023-07-14T09:00:00.204Z,26.50
2023-07-14T09:05:47.800Z,26.57
2023-07-14T09:11:42.750Z,26.61
2023-07-14T09:16:44.536Z,26.61
2023-07-14T09:22:00.477Z,26.67
2023-07-14T09:36:41.722Z,26.71
2023-07-14T09:42:22.896Z,26.70
2023-07-14T09:48:23.654Z,26.72
2023-07-14T09:54:13.973Z,26.74
2023-07-14T10:11:05.513Z,26.77
2023-07-14T10:16:21.520Z,26.80
2023-07-14T10:21:39.164Z,26.78
2023-07-14T10:36:06.477Z,26.82
2023-07-14T10:41:50.570Z,26.83
2023-07-14T10:47:42.867Z,26.85
2023-07-14T10:53:32.749Z,26.85
2023-07-14T11:00:20.968Z,26.89
2023-07-14T11:04:49.376Z,26.89
2023-07-14T11:09:58.063Z,26.90
2023-07-14T11:17:49.547Z,26.94
2023-07-14T11:21:05.078Z,26.94
2023-07-14T11:42:12.767Z,27.02
2023-07-14T12:01:02.820Z,27.10
2023-07-14T12:14:16.271Z,27.16
2023-07-14T12:31:47.506Z,27.21
2023-07-14T12:37:47.773Z,27.20
2023-07-14T12:44:12.900Z,27.22
2023-07-14T12:50:01.491Z,27.24
2023-07-14T13:06:33.672Z,27.22
2023-07-14T13:12:31.281Z,27.24
2023-07-14T13:34:02.906Z,27.29
2023-07-14T13:49:11.958Z,27.30
2023-07-14T13:56:03.148Z,27.32
2023-07-14T14:03:33.721Z,27.36
2023-07-14T14:12:39.578Z,27.39
2023-07-14T14:18:55.667Z,27.38
2023-07-14T14:24:46.791Z,27.39
2023-07-14T15:43:26.453Z,27.59
2023-07-14T15:52:39.939Z,27.68
2023-07-14T15:58:42.432Z,27.68
2023-07-14T16:04:25.175Z,27.69
2023-07-14T16:10:11.621Z,27.73
2023-07-14T16:15:54.112Z,27.75
2023-07-14T16:26:20.165Z,27.81
2023-07-14T16:31:50.139Z,27.84
2023-07-14T16:36:59.233Z,27.89
2023-07-14T16:43:07.479Z,27.91
2023-07-14T16:49:11.348Z,27.93
2023-07-14T16:54:30.093Z,27.96
2023-07-14T17:00:15.568Z,27.95
2023-07-14T17:06:02.697Z,27.97
2023-07-14T17:23:11.992Z,27.99
2023-07-14T17:34:14.285Z,28.01
2023-07-14T17:39:57.932Z,28.02
2023-07-14T17:45:43.075Z,28.03
2023-07-14T17:51:29.634Z,28.02
2023-07-14T17:57:21.011Z,28.04
2023-07-14T18:08:43.268Z,28.05
2023-07-14T18:13:17.594Z,28.06
2023-07-14T18:19:04.641Z,28.06
2023-07-14T18:24:58.342Z,28.05
2023-07-14T18:30:12.347Z,28.06
2023-07-14T18:35:59.574Z,28.05
2023-07-14T18:41:41.986Z,28.06
2023-07-14T18:47:24.546Z,28.04
2023-07-14T18:58:20.946Z,28.04
2023-07-14T19:04:03.569Z,28.03
2023-07-14T19:09:53.293Z,28.01
2023-07-14T19:21:27.050Z,28.00
2023-07-14T19:27:09.319Z,28.01
2023-07-14T19:32:58.615Z,27.94
2023-07-14T19:44:43.534Z,27.90
2023-07-14T19:50:14.121Z,27.90
2023-07-14T20:01:28.676Z,27.82
2023-07-14T20:07:16.208Z,27.86
2023-07-14T20:12:58.918Z,27.91
2023-07-14T20:18:50.757Z,27.90
2023-07-14T20:35:20.404Z,27.82
2023-07-14T20:41:07.734Z,27.83
2023-07-14T20:49:10.786Z,27.91
2023-07-14T20:54:08.088Z,27.98
2023-07-14T20:58:20.280Z,27.96
2023-07-14T21:04:11.619Z,27.98
2023-07-14T21:09:16.020Z,28.03
2023-07-14T21:14:39.411Z,27.98
2023-07-14T21:19:57.991Z,27.95
2023-07-14T21:25:27.649Z,27.98
2023-07-14T21:31:25.666Z,28.05
2023-07-14T21:37:03.159Z,28.14
2023-07-14T21:42:40.266Z,28.15
2023-07-14T21:48:27.589Z,28.16
2023-07-14T21:54:18.812Z,28.17
2023-07-14T22:04:18.081Z,28.10
2023-07-14T22:05:01.929Z,28.17
2023-07-14T22:10:59.331Z,28.17
2023-07-14T22:16:36.365Z,28.17
2023-07-14T22:21:53.903Z,28.19
2023-07-14T22:27:06.450Z,28.22
2023-07-14T22:32:27.226Z,28.28
2023-07-14T22:38:12.963Z,28.32
2023-07-14T22:43:57.116Z,28.41
2023-07-14T22:50:27.394Z,28.45
2023-07-14T22:54:30.761Z,28.49
2023-07-14T22:59:37.080Z,28.49
2023-07-14T23:05:02.489Z,28.45
2023-07-14T23:10:16.809Z,28.42
2023-07-14T23:16:04.323Z,28.38
2023-07-14T23:21:49.679Z,28.40
2023-07-14T23:27:10.819Z,28.38
2023-07-14T23:32:55.494Z,28.39
2023-07-14T23:38:16.161Z,28.42
2023-07-14T23:44:13.363Z,28.41
2023-07-14T23:49:26.690Z,28.39
2023-07-14T23:54:41.285Z,28.41
